sensor_id;sensor_type;location;lat;lon;timestamp;temperature;humidity
32612;DHT22;19030;49.478;8.986;2024-01-25T00:01:48;9.10;99.90
32612;DHT22;19030;49.478;8.986;2024-01-25T00:03:49;9.00;99.90
32612;DHT22;19030;49.478;8.986;2024-01-25T00:05:49;9.00;99.90
32612;DHT22;19030;49.478;8.986;2024-01-25T00:07:50;9.10;99.90
32612;DHT22;19030;49.478;8.986;2024-01-25T00:09:50;9.20;99.90
32612;DHT22;19030;49.478;8.986;2024-01-25T00:11:51;9.20;99.90
32612;DHT22;19030;49.478;8.986;2024-01-25T00:13:52;9.20;99.90
32612;DHT22;19030;49.478;8.986;2024-01-25T00:15:52;9.30;99.90
32612;DHT22;19030;49.478;8.986;2024-01-25T00:17:53;9.30;99.90
32612;DHT22;19030;49.478;8.986;2024-01-25T00:19:54;9.30;99.90
32612;DHT22;19030;49.478;8.986;2024-01-25T00:21:54;9.20;99.90
32612;DHT22;19030;49.478;8.986;2024-01-25T00:23:55;9.10;99.90
32612;DHT22;19030;49.478;8.986;2024-01-25T00:25:55;9.00;99.90
32612;DHT22;19030;49.478;8.986;2024-01-25T00:27:58;9.00;99.90
32612;DHT22;19030;49.478;8.986;2024-01-25T00:29:59;8.90;99.90
32612;DHT22;19030;49.478;8.986;2024-01-25T00:31:59;8.90;99.90
32612;DHT22;19030;49.478;8.986;2024-01-25T00:34:02;8.80;99.90
32612;DHT22;19030;49.478;8.986;2024-01-25T00:36:03;8.80;99.90
32612;DHT22;19030;49.478;8.986;2024-01-25T00:38:04;8.80;99.90
32612;DHT22;19030;49.478;8.986;2024-01-25T00:40:05;8.80;99.90
32612;DHT22;19030;49.478;8.986;2024-01-25T00:42:06;8.80;99.90
32612;DHT22;19030;49.478;8.986;2024-01-25T00:44:07;8.80;99.90
32612;DHT22;19030;49.478;8.986;2024-01-25T00:46:08;8.70;99.90
32612;DHT22;19030;49.478;8.986;2024-01-25T00:48:10;8.70;99.90
32612;DHT22;19030;49.478;8.986;2024-01-25T00:50:11;8.70;99.90
32612;DHT22;19030;49.478;8.986;2024-01-25T00:52:12;8.70;99.90
32612;DHT22;19030;49.478;8.986;2024-01-25T00:54:14;8.70;99.90
32612;DHT22;19030;49.478;8.986;2024-01-25T00:56:14;8.70;99.90
32612;DHT22;19030;49.478;8.986;2024-01-25T00:58:15;8.80;99.90
32612;DHT22;19030;49.478;8.986;2024-01-25T01:00:16;8.80;99.90
32612;DHT22;19030;49.478;8.986;2024-01-25T01:02:17;8.70;99.90
32612;DHT22;19030;49.478;8.986;2024-01-25T01:04:20;8.70;99.90
32612;DHT22;19030;49.478;8.986;2024-01-25T01:06:21;8.60;99.90
32612;DHT22;19030;49.478;8.986;2024-01-25T01:08:22;8.60;99.90
32612;DHT22;19030;49.478;8.986;2024-01-25T01:10:22;8.50;99.90
32612;DHT22;19030;49.478;8.986;2024-01-25T01:12:23;8.50;99.90
32612;DHT22;19030;49.478;8.986;2024-01-25T01:14:23;8.60;99.90
32612;DHT22;19030;49.478;8.986;2024-01-25T01:16:24;8.60;99.90
32612;DHT22;19030;49.478;8.986;2024-01-25T01:18:24;8.60;99.90
32612;DHT22;19030;49.478;8.986;2024-01-25T01:20:25;8.60;99.90
32612;DHT22;19030;49.478;8.986;2024-01-25T01:22:25;8.60;99.90
32612;DHT22;19030;49.478;8.986;2024-01-25T01:24:26;8.60;99.90
32612;DHT22;19030;49.478;8.986;2024-01-25T01:26:27;8.70;99.90
32612;DHT22;19030;49.478;8.986;2024-01-25T01:28:27;8.70;99.90
32612;DHT22;19030;49.478;8.986;2024-01-25T01:30:28;8.70;99.90
32612;DHT22;19030;49.478;8.986;2024-01-25T01:32:28;8.60;99.90
32612;DHT22;19030;49.478;8.986;2024-01-25T01:34:29;8.60;99.90
32612;DHT22;19030;49.478;8.986;2024-01-25T01:36:29;8.60;99.90
32612;DHT22;19030;49.478;8.986;2024-01-25T01:38:30;8.60;99.90
32612;DHT22;19030;49.478;8.986;2024-01-25T01:40:30;8.60;99.90
32612;DHT22;19030;49.478;8.986;2024-01-25T01:42:31;8.60;99.90
32612;DHT22;19030;49.478;8.986;2024-01-25T01:44:33;8.60;99.90
32612;DHT22;19030;49.478;8.986;2024-01-25T01:46:35;8.60;99.90
32612;DHT22;19030;49.478;8.986;2024-01-25T01:48:38;8.60;99.90
32612;DHT22;19030;49.478;8.986;2024-01-25T01:50:39;8.50;99.90
32612;DHT22;19030;49.478;8.986;2024-01-25T01:52:40;8.40;99.90
32612;DHT22;19030;49.478;8.986;2024-01-25T01:54:41;8.30;99.90
32612;DHT22;19030;49.478;8.986;2024-01-25T01:56:42;8.30;99.90
32612;DHT22;19030;49.478;8.986;2024-01-25T01:58:45;8.20;99.90
32612;DHT22;19030;49.478;8.986;2024-01-25T02:00:49;8.10;99.90
32612;DHT22;19030;49.478;8.986;2024-01-25T02:02:51;8.00;99.90
32612;DHT22;19030;49.478;8.986;2024-01-25T02:04:51;7.90;99.90
32612;DHT22;19030;49.478;8.986;2024-01-25T02:06:52;7.80;99.90
32612;DHT22;19030;49.478;8.986;2024-01-25T02:08:53;7.80;99.90
32612;DHT22;19030;49.478;8.986;2024-01-25T02:10:53;7.70;99.90
32612;DHT22;19030;49.478;8.986;2024-01-25T02:12:54;7.70;99.90
32612;DHT22;19030;49.478;8.986;2024-01-25T02:14:54;7.70;99.90
32612;DHT22;19030;49.478;8.986;2024-01-25T02:16:55;7.60;99.90
32612;DHT22;19030;49.478;8.986;2024-01-25T02:18:55;7.60;99.90
32612;DHT22;19030;49.478;8.986;2024-01-25T02:20:58;7.60;99.90
32612;DHT22;19030;49.478;8.986;2024-01-25T02:22:58;7.60;99.90
32612;DHT22;19030;49.478;8.986;2024-01-25T02:24:59;7.50;99.90
32612;DHT22;19030;49.478;8.986;2024-01-25T02:26:59;7.60;99.90
32612;DHT22;19030;49.478;8.986;2024-01-25T02:29:00;7.50;99.90
32612;DHT22;19030;49.478;8.986;2024-01-25T02:31:02;7.60;99.90
32612;DHT22;19030;49.478;8.986;2024-01-25T02:33:03;7.60;99.90
32612;DHT22;19030;49.478;8.986;2024-01-25T02:35:03;7.60;99.90
32612;DHT22;19030;49.478;8.986;2024-01-25T02:37:04;7.60;99.90
32612;DHT22;19030;49.478;8.986;2024-01-25T02:39:05;7.50;99.90
32612;DHT22;19030;49.478;8.986;2024-01-25T02:41:06;7.50;99.90
32612;DHT22;19030;49.478;8.986;2024-01-25T02:43:07;7.50;99.90
32612;DHT22;19030;49.478;8.986;2024-01-25T02:45:08;7.50;99.90
32612;DHT22;19030;49.478;8.986;2024-01-25T02:47:08;7.50;99.90
32612;DHT22;19030;49.478;8.986;2024-01-25T02:49:09;7.60;99.90
32612;DHT22;19030;49.478;8.986;2024-01-25T02:51:10;7.60;99.90
32612;DHT22;19030;49.478;8.986;2024-01-25T02:53:10;7.60;99.90
32612;DHT22;19030;49.478;8.986;2024-01-25T02:55:11;7.60;99.90
32612;DHT22;19030;49.478;8.986;2024-01-25T02:57:11;7.60;99.90
32612;DHT22;19030;49.478;8.986;2024-01-25T02:59:12;7.60;99.90
32612;DHT22;19030;49.478;8.986;2024-01-25T03:01:12;7.60;99.90
32612;DHT22;19030;49.478;8.986;2024-01-25T03:03:13;7.50;99.90
32612;DHT22;19030;49.478;8.986;2024-01-25T03:05:13;7.50;99.90
32612;DHT22;19030;49.478;8.986;2024-01-25T03:07:14;7.50;99.90
32612;DHT22;19030;49.478;8.986;2024-01-25T03:09:15;7.50;99.90
32612;DHT22;19030;49.478;8.986;2024-01-25T03:11:15;7.50;99.90
32612;DHT22;19030;49.478;8.986;2024-01-25T03:13:16;7.40;99.90
32612;DHT22;19030;49.478;8.986;2024-01-25T03:15:16;7.40;99.90
32612;DHT22;19030;49.478;8.986;2024-01-25T03:17:17;7.40;99.90
32612;DHT22;19030;49.478;8.986;2024-01-25T03:19:18;7.40;99.90
32612;DHT22;19030;49.478;8.986;2024-01-25T03:21:18;7.30;99.90
32612;DHT22;19030;49.478;8.986;2024-01-25T03:23:19;7.20;99.90
32612;DHT22;19030;49.478;8.986;2024-01-25T03:25:20;7.20;99.90
32612;DHT22;19030;49.478;8.986;2024-01-25T03:27:20;7.10;99.90
32612;DHT22;19030;49.478;8.986;2024-01-25T03:29:21;7.00;99.90
32612;DHT22;19030;49.478;8.986;2024-01-25T03:31:21;7.00;99.90
32612;DHT22;19030;49.478;8.986;2024-01-25T03:33:22;7.00;99.90
32612;DHT22;19030;49.478;8.986;2024-01-25T03:35:22;6.90;99.90
32612;DHT22;19030;49.478;8.986;2024-01-25T03:37:23;6.90;99.90
32612;DHT22;19030;49.478;8.986;2024-01-25T03:39:23;6.80;99.90
32612;DHT22;19030;49.478;8.986;2024-01-25T03:41:24;6.80;99.90
32612;DHT22;19030;49.478;8.986;2024-01-25T03:43:25;6.80;99.90
32612;DHT22;19030;49.478;8.986;2024-01-25T03:45:26;6.80;99.90
32612;DHT22;19030;49.478;8.986;2024-01-25T03:47:26;6.80;99.90
32612;DHT22;19030;49.478;8.986;2024-01-25T03:49:27;6.90;99.90
32612;DHT22;19030;49.478;8.986;2024-01-25T03:51:27;6.90;99.90
32612;DHT22;19030;49.478;8.986;2024-01-25T03:53:28;6.90;99.90
32612;DHT22;19030;49.478;8.986;2024-01-25T03:55:28;7.00;99.90
32612;DHT22;19030;49.478;8.986;2024-01-25T03:57:29;7.00;99.90
32612;DHT22;19030;49.478;8.986;2024-01-25T03:59:30;7.10;99.90
32612;DHT22;19030;49.478;8.986;2024-01-25T04:01:30;7.10;99.90
32612;DHT22;19030;49.478;8.986;2024-01-25T04:03:31;7.10;99.90
32612;DHT22;19030;49.478;8.986;2024-01-25T04:05:31;7.10;99.90
32612;DHT22;19030;49.478;8.986;2024-01-25T04:07:32;7.10;99.90
32612;DHT22;19030;49.478;8.986;2024-01-25T04:09:32;7.00;99.90
32612;DHT22;19030;49.478;8.986;2024-01-25T04:11:33;7.10;99.90
32612;DHT22;19030;49.478;8.986;2024-01-25T04:13:33;7.10;99.90
32612;DHT22;19030;49.478;8.986;2024-01-25T04:15:34;7.10;99.90
32612;DHT22;19030;49.478;8.986;2024-01-25T04:17:35;7.10;99.90
32612;DHT22;19030;49.478;8.986;2024-01-25T04:19:36;7.00;99.90
32612;DHT22;19030;49.478;8.986;2024-01-25T04:21:37;7.00;99.90
32612;DHT22;19030;49.478;8.986;2024-01-25T04:23:38;6.90;99.90
32612;DHT22;19030;49.478;8.986;2024-01-25T04:25:38;6.90;99.90
32612;DHT22;19030;49.478;8.986;2024-01-25T04:27:39;6.90;99.90
32612;DHT22;19030;49.478;8.986;2024-01-25T04:29:43;6.90;99.90
32612;DHT22;19030;49.478;8.986;2024-01-25T04:31:44;7.00;99.90
32612;DHT22;19030;49.478;8.986;2024-01-25T04:33:45;7.00;99.90
32612;DHT22;19030;49.478;8.986;2024-01-25T04:35:46;6.90;99.90
32612;DHT22;19030;49.478;8.986;2024-01-25T04:37:46;7.00;99.90
32612;DHT22;19030;49.478;8.986;2024-01-25T04:39:47;7.00;99.90
32612;DHT22;19030;49.478;8.986;2024-01-25T04:41:47;6.90;99.90
32612;DHT22;19030;49.478;8.986;2024-01-25T04:43:48;6.90;99.90
32612;DHT22;19030;49.478;8.986;2024-01-25T04:45:49;7.00;99.90
32612;DHT22;19030;49.478;8.986;2024-01-25T04:47:49;7.00;99.90
32612;DHT22;19030;49.478;8.986;2024-01-25T04:49:50;7.00;99.90
32612;DHT22;19030;49.478;8.986;2024-01-25T04:51:50;7.00;99.90
32612;DHT22;19030;49.478;8.986;2024-01-25T04:53:51;7.00;99.90
32612;DHT22;19030;49.478;8.986;2024-01-25T04:55:54;7.10;99.90
32612;DHT22;19030;49.478;8.986;2024-01-25T04:57:55;7.10;99.90
32612;DHT22;19030;49.478;8.986;2024-01-25T04:59:56;7.10;99.90
32612;DHT22;19030;49.478;8.986;2024-01-25T05:01:56;7.20;99.90
32612;DHT22;19030;49.478;8.986;2024-01-25T05:03:58;7.20;99.90
32612;DHT22;19030;49.478;8.986;2024-01-25T05:05:59;7.20;99.90
32612;DHT22;19030;49.478;8.986;2024-01-25T05:07:59;7.20;99.90
32612;DHT22;19030;49.478;8.986;2024-01-25T05:10:00;7.20;99.90
32612;DHT22;19030;49.478;8.986;2024-01-25T05:12:00;7.10;99.90
32612;DHT22;19030;49.478;8.986;2024-01-25T05:14:02;7.10;99.90
32612;DHT22;19030;49.478;8.986;2024-01-25T05:16:03;7.00;99.90
32612;DHT22;19030;49.478;8.986;2024-01-25T05:18:04;6.90;99.90
32612;DHT22;19030;49.478;8.986;2024-01-25T05:20:05;6.80;99.90
32612;DHT22;19030;49.478;8.986;2024-01-25T05:22:06;6.80;99.90
32612;DHT22;19030;49.478;8.986;2024-01-25T05:24:07;6.70;99.90
32612;DHT22;19030;49.478;8.986;2024-01-25T05:26:10;6.60;99.90
32612;DHT22;19030;49.478;8.986;2024-01-25T05:28:11;6.60;99.90
32612;DHT22;19030;49.478;8.986;2024-01-25T05:30:12;6.60;99.90
32612;DHT22;19030;49.478;8.986;2024-01-25T05:32:12;6.60;99.90
32612;DHT22;19030;49.478;8.986;2024-01-25T05:34:13;6.60;99.90
32612;DHT22;19030;49.478;8.986;2024-01-25T05:36:14;6.60;99.90
32612;DHT22;19030;49.478;8.986;2024-01-25T05:38:14;6.60;99.90
32612;DHT22;19030;49.478;8.986;2024-01-25T05:40:15;6.60;99.90
32612;DHT22;19030;49.478;8.986;2024-01-25T05:42:15;6.60;99.90
32612;DHT22;19030;49.478;8.986;2024-01-25T05:44:16;6.60;99.90
32612;DHT22;19030;49.478;8.986;2024-01-25T05:46:16;6.60;99.90
32612;DHT22;19030;49.478;8.986;2024-01-25T05:48:17;6.60;99.90
32612;DHT22;19030;49.478;8.986;2024-01-25T05:50:18;6.60;99.90
32612;DHT22;19030;49.478;8.986;2024-01-25T05:52:19;6.60;99.90
32612;DHT22;19030;49.478;8.986;2024-01-25T05:54:21;6.60;99.90
32612;DHT22;19030;49.478;8.986;2024-01-25T05:56:22;6.60;99.90
32612;DHT22;19030;49.478;8.986;2024-01-25T05:58:22;6.60;99.90
32612;DHT22;19030;49.478;8.986;2024-01-25T06:00:23;6.60;99.90
32612;DHT22;19030;49.478;8.986;2024-01-25T06:02:24;6.60;99.90
32612;DHT22;19030;49.478;8.986;2024-01-25T06:04:24;6.50;99.90
32612;DHT22;19030;49.478;8.986;2024-01-25T06:06:25;6.50;99.90
32612;DHT22;19030;49.478;8.986;2024-01-25T06:08:26;6.50;99.90
32612;DHT22;19030;49.478;8.986;2024-01-25T06:10:26;6.50;99.90
32612;DHT22;19030;49.478;8.986;2024-01-25T06:12:27;6.50;99.90
32612;DHT22;19030;49.478;8.986;2024-01-25T06:14:27;6.50;99.90
32612;DHT22;19030;49.478;8.986;2024-01-25T06:16:28;6.50;99.90
32612;DHT22;19030;49.478;8.986;2024-01-25T06:18:28;6.60;99.90
32612;DHT22;19030;49.478;8.986;2024-01-25T06:20:29;6.60;99.90
32612;DHT22;19030;49.478;8.986;2024-01-25T06:22:29;6.60;99.90
32612;DHT22;19030;49.478;8.986;2024-01-25T06:24:30;6.60;99.90
32612;DHT22;19030;49.478;8.986;2024-01-25T06:26:30;6.60;99.90
32612;DHT22;19030;49.478;8.986;2024-01-25T06:28:31;6.60;99.90
32612;DHT22;19030;49.478;8.986;2024-01-25T06:30:31;6.70;99.90
32612;DHT22;19030;49.478;8.986;2024-01-25T06:32:32;6.70;99.90
32612;DHT22;19030;49.478;8.986;2024-01-25T06:34:33;6.80;99.90
32612;DHT22;19030;49.478;8.986;2024-01-25T06:36:33;6.80;99.90
32612;DHT22;19030;49.478;8.986;2024-01-25T06:38:34;6.90;99.90
32612;DHT22;19030;49.478;8.986;2024-01-25T06:40:36;6.90;99.90
32612;DHT22;19030;49.478;8.986;2024-01-25T06:42:36;6.90;99.90
32612;DHT22;19030;49.478;8.986;2024-01-25T06:44:37;6.90;99.90
32612;DHT22;19030;49.478;8.986;2024-01-25T06:46:38;6.90;99.90
32612;DHT22;19030;49.478;8.986;2024-01-25T06:48:38;7.00;99.90
32612;DHT22;19030;49.478;8.986;2024-01-25T06:50:39;7.00;99.90
32612;DHT22;19030;49.478;8.986;2024-01-25T06:52:39;7.00;99.90
32612;DHT22;19030;49.478;8.986;2024-01-25T06:54:40;7.00;99.90
32612;DHT22;19030;49.478;8.986;2024-01-25T06:56:40;7.00;99.90
32612;DHT22;19030;49.478;8.986;2024-01-25T06:58:41;7.00;99.90
32612;DHT22;19030;49.478;8.986;2024-01-25T07:00:41;6.90;99.90
32612;DHT22;19030;49.478;8.986;2024-01-25T07:02:42;6.90;99.90
32612;DHT22;19030;49.478;8.986;2024-01-25T07:04:43;6.90;99.90
32612;DHT22;19030;49.478;8.986;2024-01-25T07:06:44;6.90;99.90
32612;DHT22;19030;49.478;8.986;2024-01-25T07:08:45;6.90;99.90
32612;DHT22;19030;49.478;8.986;2024-01-25T07:10:45;6.80;99.90
32612;DHT22;19030;49.478;8.986;2024-01-25T07:12:46;6.80;99.90
32612;DHT22;19030;49.478;8.986;2024-01-25T07:14:46;6.70;99.90
32612;DHT22;19030;49.478;8.986;2024-01-25T07:16:47;6.70;99.90
32612;DHT22;19030;49.478;8.986;2024-01-25T07:18:47;6.70;99.90
32612;DHT22;19030;49.478;8.986;2024-01-25T07:20:48;6.70;99.90
32612;DHT22;19030;49.478;8.986;2024-01-25T07:22:49;6.70;99.90
32612;DHT22;19030;49.478;8.986;2024-01-25T07:24:49;6.70;99.90
32612;DHT22;19030;49.478;8.986;2024-01-25T07:26:50;6.70;99.90
32612;DHT22;19030;49.478;8.986;2024-01-25T07:28:50;6.70;99.90
32612;DHT22;19030;49.478;8.986;2024-01-25T07:30:54;6.70;99.90
32612;DHT22;19030;49.478;8.986;2024-01-25T07:32:54;6.70;99.90
32612;DHT22;19030;49.478;8.986;2024-01-25T07:34:55;6.80;99.90
32612;DHT22;19030;49.478;8.986;2024-01-25T07:36:55;6.90;99.90
32612;DHT22;19030;49.478;8.986;2024-01-25T07:38:56;6.90;99.90
32612;DHT22;19030;49.478;8.986;2024-01-25T07:40:57;7.00;99.90
32612;DHT22;19030;49.478;8.986;2024-01-25T07:42:58;7.10;99.90
32612;DHT22;19030;49.478;8.986;2024-01-25T07:44:58;7.20;99.90
32612;DHT22;19030;49.478;8.986;2024-01-25T07:46:59;7.30;99.90
32612;DHT22;19030;49.478;8.986;2024-01-25T07:48:59;7.40;99.90
32612;DHT22;19030;49.478;8.986;2024-01-25T07:51:00;7.50;99.90
32612;DHT22;19030;49.478;8.986;2024-01-25T07:53:00;7.60;99.90
32612;DHT22;19030;49.478;8.986;2024-01-25T07:55:03;7.80;99.90
32612;DHT22;19030;49.478;8.986;2024-01-25T07:57:03;7.90;99.90
32612;DHT22;19030;49.478;8.986;2024-01-25T07:59:04;8.10;99.90
32612;DHT22;19030;49.478;8.986;2024-01-25T08:01:05;8.40;99.90
32612;DHT22;19030;49.478;8.986;2024-01-25T08:03:06;8.60;99.90
32612;DHT22;19030;49.478;8.986;2024-01-25T08:05:07;8.80;99.90
32612;DHT22;19030;49.478;8.986;2024-01-25T08:07:07;9.00;99.90
32612;DHT22;19030;49.478;8.986;2024-01-25T08:09:09;9.20;99.90
32612;DHT22;19030;49.478;8.986;2024-01-25T08:11:09;9.40;99.90
32612;DHT22;19030;49.478;8.986;2024-01-25T08:13:10;9.40;99.90
32612;DHT22;19030;49.478;8.986;2024-01-25T08:15:11;9.50;99.90
32612;DHT22;19030;49.478;8.986;2024-01-25T08:17:11;9.50;99.90
32612;DHT22;19030;49.478;8.986;2024-01-25T08:19:12;9.60;99.90
32612;DHT22;19030;49.478;8.986;2024-01-25T08:21:13;9.50;99.90
32612;DHT22;19030;49.478;8.986;2024-01-25T08:23:14;9.50;99.90
32612;DHT22;19030;49.478;8.986;2024-01-25T08:25:15;9.40;99.90
32612;DHT22;19030;49.478;8.986;2024-01-25T08:27:16;9.50;99.90
32612;DHT22;19030;49.478;8.986;2024-01-25T08:29:17;9.50;99.90
32612;DHT22;19030;49.478;8.986;2024-01-25T08:31:17;9.60;99.90
32612;DHT22;19030;49.478;8.986;2024-01-25T08:33:18;9.90;99.90
32612;DHT22;19030;49.478;8.986;2024-01-25T08:35:18;10.20;99.90
32612;DHT22;19030;49.478;8.986;2024-01-25T08:37:19;10.40;99.90
32612;DHT22;19030;49.478;8.986;2024-01-25T08:39:19;10.80;99.90
32612;DHT22;19030;49.478;8.986;2024-01-25T08:41:20;11.30;99.90
32612;DHT22;19030;49.478;8.986;2024-01-25T08:43:21;11.70;99.90
32612;DHT22;19030;49.478;8.986;2024-01-25T08:45:22;11.90;99.90
32612;DHT22;19030;49.478;8.986;2024-01-25T08:47:23;12.00;99.90
32612;DHT22;19030;49.478;8.986;2024-01-25T08:49:24;12.00;99.90
32612;DHT22;19030;49.478;8.986;2024-01-25T08:51:24;12.00;99.90
32612;DHT22;19030;49.478;8.986;2024-01-25T08:53:25;11.90;99.90
32612;DHT22;19030;49.478;8.986;2024-01-25T08:55:28;11.80;99.90
32612;DHT22;19030;49.478;8.986;2024-01-25T08:57:29;11.80;99.90
32612;DHT22;19030;49.478;8.986;2024-01-25T08:59:30;11.90;99.90
32612;DHT22;19030;49.478;8.986;2024-01-25T09:01:33;12.00;99.90
32612;DHT22;19030;49.478;8.986;2024-01-25T09:03:34;12.10;99.90
32612;DHT22;19030;49.478;8.986;2024-01-25T09:05:35;12.30;99.90
32612;DHT22;19030;49.478;8.986;2024-01-25T09:07:40;12.50;99.90
32612;DHT22;19030;49.478;8.986;2024-01-25T09:09:40;12.60;99.90
32612;DHT22;19030;49.478;8.986;2024-01-25T09:11:41;13.40;99.90
32612;DHT22;19030;49.478;8.986;2024-01-25T09:13:42;14.20;99.90
32612;DHT22;19030;49.478;8.986;2024-01-25T09:15:45;14.60;99.90
32612;DHT22;19030;49.478;8.986;2024-01-25T09:17:47;15.20;99.90
32612;DHT22;19030;49.478;8.986;2024-01-25T09:19:48;15.90;99.00
32612;DHT22;19030;49.478;8.986;2024-01-25T09:21:50;17.20;94.90
32612;DHT22;19030;49.478;8.986;2024-01-25T09:23:50;17.50;91.30
32612;DHT22;19030;49.478;8.986;2024-01-25T09:25:51;17.10;90.30
32612;DHT22;19030;49.478;8.986;2024-01-25T09:27:52;17.00;88.90
32612;DHT22;19030;49.478;8.986;2024-01-25T09:29:52;16.90;90.10
32612;DHT22;19030;49.478;8.986;2024-01-25T09:31:53;17.80;87.30
32612;DHT22;19030;49.478;8.986;2024-01-25T09:33:54;19.10;78.80
32612;DHT22;19030;49.478;8.986;2024-01-25T09:35:55;18.50;76.50
32612;DHT22;19030;49.478;8.986;2024-01-25T09:37:56;18.80;77.90
32612;DHT22;19030;49.478;8.986;2024-01-25T09:39:56;20.00;70.40
32612;DHT22;19030;49.478;8.986;2024-01-25T09:41:59;20.80;65.80
32612;DHT22;19030;49.478;8.986;2024-01-25T09:44:00;21.10;60.70
32612;DHT22;19030;49.478;8.986;2024-01-25T09:46:00;20.00;62.10
32612;DHT22;19030;49.478;8.986;2024-01-25T09:48:02;19.90;63.30
32612;DHT22;19030;49.478;8.986;2024-01-25T09:50:05;20.10;61.80
32612;DHT22;19030;49.478;8.986;2024-01-25T09:52:06;20.60;60.60
32612;DHT22;19030;49.478;8.986;2024-01-25T09:54:07;20.20;59.80
32612;DHT22;19030;49.478;8.986;2024-01-25T09:56:12;19.40;61.90
32612;DHT22;19030;49.478;8.986;2024-01-25T09:58:13;19.40;63.00
32612;DHT22;19030;49.478;8.986;2024-01-25T10:00:14;18.80;63.40
32612;DHT22;19030;49.478;8.986;2024-01-25T10:02:16;19.20;64.30
32612;DHT22;19030;49.478;8.986;2024-01-25T10:04:16;19.10;62.70
32612;DHT22;19030;49.478;8.986;2024-01-25T10:06:19;18.50;64.50
32612;DHT22;19030;49.478;8.986;2024-01-25T10:08:20;17.00;67.00
32612;DHT22;19030;49.478;8.986;2024-01-25T10:10:24;16.50;71.90
32612;DHT22;19030;49.478;8.986;2024-01-25T10:12:24;17.20;70.60
32612;DHT22;19030;49.478;8.986;2024-01-25T10:14:26;17.30;70.80
32612;DHT22;19030;49.478;8.986;2024-01-25T10:16:26;17.30;71.10
32612;DHT22;19030;49.478;8.986;2024-01-25T10:18:27;18.20;67.60
32612;DHT22;19030;49.478;8.986;2024-01-25T10:20:31;19.10;64.60
32612;DHT22;19030;49.478;8.986;2024-01-25T10:22:31;20.40;60.10
32612;DHT22;19030;49.478;8.986;2024-01-25T10:24:32;21.70;56.90
32612;DHT22;19030;49.478;8.986;2024-01-25T10:26:34;23.50;53.20
32612;DHT22;19030;49.478;8.986;2024-01-25T10:28:35;25.30;48.60
32612;DHT22;19030;49.478;8.986;2024-01-25T10:30:36;27.00;44.60
32612;DHT22;19030;49.478;8.986;2024-01-25T10:32:37;27.30;41.60
32612;DHT22;19030;49.478;8.986;2024-01-25T10:34:38;26.40;41.90
32612;DHT22;19030;49.478;8.986;2024-01-25T10:36:39;24.60;43.40
32612;DHT22;19030;49.478;8.986;2024-01-25T10:38:42;23.80;44.80
32612;DHT22;19030;49.478;8.986;2024-01-25T10:40:46;23.10;45.80
32612;DHT22;19030;49.478;8.986;2024-01-25T10:42:47;22.20;47.50
32612;DHT22;19030;49.478;8.986;2024-01-25T10:44:48;21.20;49.40
32612;DHT22;19030;49.478;8.986;2024-01-25T10:46:49;21.00;50.50
32612;DHT22;19030;49.478;8.986;2024-01-25T10:48:50;22.10;48.40
32612;DHT22;19030;49.478;8.986;2024-01-25T10:50:55;22.90;45.70
32612;DHT22;19030;49.478;8.986;2024-01-25T10:52:57;22.00;46.50
32612;DHT22;19030;49.478;8.986;2024-01-25T10:54:58;22.10;47.70
32612;DHT22;19030;49.478;8.986;2024-01-25T10:56:58;23.30;46.30
32612;DHT22;19030;49.478;8.986;2024-01-25T10:58:59;24.90;42.90
32612;DHT22;19030;49.478;8.986;2024-01-25T11:01:00;26.40;41.20
32612;DHT22;19030;49.478;8.986;2024-01-25T11:03:01;27.50;38.30
32612;DHT22;19030;49.478;8.986;2024-01-25T11:05:16;27.30;37.80
32612;DHT22;19030;49.478;8.986;2024-01-25T11:07:17;26.30;39.00
32612;DHT22;19030;49.478;8.986;2024-01-25T11:09:20;25.30;39.70
32612;DHT22;19030;49.478;8.986;2024-01-25T11:11:21;24.80;40.70
32612;DHT22;19030;49.478;8.986;2024-01-25T11:13:25;24.60;40.60
32612;DHT22;19030;49.478;8.986;2024-01-25T11:15:36;23.60;42.00
32612;DHT22;19030;49.478;8.986;2024-01-25T11:17:37;22.40;43.80
32612;DHT22;19030;49.478;8.986;2024-01-25T11:19:40;22.10;44.40
32612;DHT22;19030;49.478;8.986;2024-01-25T11:21:48;21.70;45.30
32612;DHT22;19030;49.478;8.986;2024-01-25T11:23:49;21.80;45.50
32612;DHT22;19030;49.478;8.986;2024-01-25T11:25:58;21.50;45.40
32612;DHT22;19030;49.478;8.986;2024-01-25T11:28:00;21.00;45.90
32612;DHT22;19030;49.478;8.986;2024-01-25T11:30:01;20.60;46.70
32612;DHT22;19030;49.478;8.986;2024-01-25T11:32:03;20.80;46.70
32612;DHT22;19030;49.478;8.986;2024-01-25T11:34:04;21.60;45.70
32612;DHT22;19030;49.478;8.986;2024-01-25T11:36:05;21.90;44.70
32612;DHT22;19030;49.478;8.986;2024-01-25T11:38:06;21.90;44.30
32612;DHT22;19030;49.478;8.986;2024-01-25T11:40:07;21.90;44.10
32612;DHT22;19030;49.478;8.986;2024-01-25T11:42:08;22.10;43.80
32612;DHT22;19030;49.478;8.986;2024-01-25T11:44:12;21.60;44.40
32612;DHT22;19030;49.478;8.986;2024-01-25T11:46:14;21.20;44.90
32612;DHT22;19030;49.478;8.986;2024-01-25T11:48:14;21.10;45.40
32612;DHT22;19030;49.478;8.986;2024-01-25T11:50:15;20.90;45.40
32612;DHT22;19030;49.478;8.986;2024-01-25T11:52:16;20.20;45.90
32612;DHT22;19030;49.478;8.986;2024-01-25T11:54:16;19.50;47.80
32612;DHT22;19030;49.478;8.986;2024-01-25T11:56:21;19.10;50.00
32612;DHT22;19030;49.478;8.986;2024-01-25T11:58:23;19.00;48.80
32612;DHT22;19030;49.478;8.986;2024-01-25T12:00:24;19.40;49.50
32612;DHT22;19030;49.478;8.986;2024-01-25T12:02:26;20.40;48.50
32612;DHT22;19030;49.478;8.986;2024-01-25T12:04:27;21.40;46.90
32612;DHT22;19030;49.478;8.986;2024-01-25T12:06:28;22.30;44.50
32612;DHT22;19030;49.478;8.986;2024-01-25T12:08:29;22.70;43.70
32612;DHT22;19030;49.478;8.986;2024-01-25T12:10:29;23.00;43.10
32612;DHT22;19030;49.478;8.986;2024-01-25T12:12:30;24.50;42.40
32612;DHT22;19030;49.478;8.986;2024-01-25T12:14:31;25.80;39.30
32612;DHT22;19030;49.478;8.986;2024-01-25T12:16:32;25.70;38.30
32612;DHT22;19030;49.478;8.986;2024-01-25T12:18:33;25.50;38.50
32612;DHT22;19030;49.478;8.986;2024-01-25T12:20:35;25.30;39.00
32612;DHT22;19030;49.478;8.986;2024-01-25T12:22:37;24.80;39.20
32612;DHT22;19030;49.478;8.986;2024-01-25T12:24:38;23.60;40.30
32612;DHT22;19030;49.478;8.986;2024-01-25T12:26:39;21.90;42.70
32612;DHT22;19030;49.478;8.986;2024-01-25T12:28:41;21.30;44.50
32612;DHT22;19030;49.478;8.986;2024-01-25T12:30:42;21.00;45.10
32612;DHT22;19030;49.478;8.986;2024-01-25T12:32:42;21.00;44.90
32612;DHT22;19030;49.478;8.986;2024-01-25T12:34:55;21.00;45.00
32612;DHT22;19030;49.478;8.986;2024-01-25T12:36:56;20.80;45.40
32612;DHT22;19030;49.478;8.986;2024-01-25T12:38:57;21.00;45.30
32612;DHT22;19030;49.478;8.986;2024-01-25T12:40:57;21.20;44.80
32612;DHT22;19030;49.478;8.986;2024-01-25T12:42:58;21.90;43.40
32612;DHT22;19030;49.478;8.986;2024-01-25T12:44:58;22.00;43.00
32612;DHT22;19030;49.478;8.986;2024-01-25T12:46:59;23.10;41.60
32612;DHT22;19030;49.478;8.986;2024-01-25T12:49:01;23.40;40.60
32612;DHT22;19030;49.478;8.986;2024-01-25T12:51:03;23.30;40.90
32612;DHT22;19030;49.478;8.986;2024-01-25T12:53:05;23.80;41.10